Time;durP1;ratioP1;P1;durP2;ratioP2;P2;SDS_P1;SDS_P2;PMS_P1;PMS_P2;Temp;Humidity;BMP_temperature;BMP_pressure;BME280_temperature;BME280_humidity;BME280_pressure;Samples;Min_cycle;Max_cycle;Signal;HPM_P1;HPM_P2
2022/03/20 00:00:22;;;;;;;24.35;17.58;;;8.70;68.20;;;6.65;53.37;101756.31;5004528;28;20063;-79
2022/03/20 00:02:50;;;;;;;19.52;15.82;;;7.20;67.10;;;6.55;53.15;101740.47;4995309;28;20472;-79
2022/03/20 00:05:17;;;;;;;21.52;17.15;;;7.10;67.10;;;6.58;52.71;101744.03;4976738;28;20049;-77
2022/03/20 00:07:46;;;;;;;20.38;17.15;;;8.80;67.90;;;6.58;52.88;101748.34;4984843;28;20061;-78
2022/03/20 00:10:14;;;;;;;25.08;17.88;;;7.00;67.30;;;6.53;52.92;101738.72;4981109;28;20050;-77
2022/03/20 00:12:43;;;;;;;25.00;17.85;;;7.80;67.70;;;6.51;53.23;101729.97;4994689;28;20125;-80
2022/03/20 00:15:10;;;;;;;20.88;16.33;;;7.60;67.90;;;6.44;52.86;101737.72;5009039;28;20118;-80
2022/03/20 00:17:37;;;;;;;24.27;16.85;;;8.20;68.00;;;6.43;52.80;101728.97;4996378;28;20065;-79
2022/03/20 00:20:06;;;;;;;21.42;16.98;;;7.70;67.50;;;6.33;52.88;101727.94;5019203;28;20034;-80
2022/03/20 00:22:36;;;;;;;20.35;16.42;;;6.80;66.80;;;6.32;53.45;101723.59;5000478;28;20049;-80
2022/03/20 00:25:04;;;;;;;22.65;17.55;;;8.00;68.10;;;6.30;53.20;101724.41;5014573;28;20410;-76
2022/03/20 00:27:32;;;;;;;24.48;17.45;;;6.80;67.00;;;6.26;52.83;101715.66;4996309;28;20084;-76
2022/03/20 00:30:01;;;;;;;24.88;18.17;;;7.80;67.60;;;6.26;52.87;101714.75;4994421;28;20054;-77
2022/03/20 00:32:28;;;;;;;20.35;16.65;;;6.70;67.10;;;6.19;53.37;101716.41;5010009;28;20054;-78
2022/03/20 00:34:59;;;;;;;23.30;17.08;;;6.70;67.50;;;6.16;53.70;101713.75;5008010;28;20060;-78
2022/03/20 00:37:28;;;;;;;22.52;17.88;;;6.60;67.70;;;6.10;54.18;101714.53;4993858;28;20053;-77
2022/03/20 00:39:55;;;;;;;23.65;16.73;;;7.50;68.10;;;6.06;53.98;101710.97;5008673;28;20053;-77
2022/03/20 00:42:22;;;;;;;25.20;18.02;;;6.60;67.40;;;6.03;54.27;101707.44;4992046;28;20050;-78
2022/03/20 00:44:49;;;;;;;24.17;17.70;;;6.50;67.60;;;5.99;54.63;101716.03;5010390;28;20053;-78
2022/03/20 00:47:16;;;;;;;22.02;16.20;;;6.40;67.80;;;6.00;54.45;101718.69;5011950;28;20080;-80
2022/03/20 00:49:43;;;;;;;22.65;17.77;;;6.50;68.00;;;5.93;53.97;101715.09;5011536;28;20085;-76
2022/03/20 00:52:10;;;;;;;22.38;15.90;;;6.40;67.70;;;5.89;54.47;101715.91;5013613;28;20052;-78
2022/03/20 00:54:37;;;;;;;20.60;16.73;;;8.00;68.70;;;5.89;54.47;101715.00;5000920;28;20050;-79
2022/03/20 00:57:04;;;;;;;22.58;17.35;;;6.40;67.80;;;5.84;54.26;101701.84;5014748;28;20050;-79
2022/03/20 00:59:32;;;;;;;18.70;15.57;;;6.30;67.70;;;5.85;54.46;101710.59;5011658;28;20054;-79
2022/03/20 01:01:59;;;;;;;25.98;17.20;;;7.50;68.50;;;5.81;54.13;101707.03;5014504;28;20050;-77
2022/03/20 01:04:26;;;;;;;24.98;17.45;;;6.30;67.60;;;5.79;53.43;101699.19;5020557;28;20041;-79
2022/03/20 01:07:00;;;;;;;25.45;17.17;;;7.70;68.70;;;5.74;53.91;101697.34;5014540;28;20580;-79
2022/03/20 01:09:27;;;;;;;20.95;15.45;;;6.30;67.20;;;5.71;53.56;101702.53;5009048;28;20053;-77
2022/03/20 01:11:55;;;;;;;22.33;17.27;;;6.20;67.20;;;5.71;53.49;101700.78;5007232;28;20049;-77
2022/03/20 01:14:24;;;;;;;22.42;15.88;;;6.40;67.00;;;5.64;53.16;101697.19;5018149;28;20132;-78
2022/03/20 01:16:54;;;;;;;23.27;15.55;;;6.20;66.90;;;5.60;53.33;101691.88;5012617;28;20040;-77
2022/03/20 01:19:23;;;;;;;19.38;16.23;;;6.20;66.80;;;5.61;53.38;101693.63;5013115;28;20124;-78
2022/03/20 01:21:53;;;;;;;20.13;15.73;;;6.10;67.00;;;5.57;53.80;101692.72;5003903;28;20490;-78
2022/03/20 01:24:22;;;;;;;20.15;16.58;;;6.10;67.40;;;5.51;53.72;101688.25;5014029;28;20056;-77
2022/03/20 01:26:50;;;;;;;22.77;18.50;;;6.10;67.10;;;5.47;53.33;101691.66;4993144;28;20057;-77
2022/03/20 01:29:17;;;;;;;22.15;16.83;;;7.20;67.70;;;5.49;53.22;101683.84;4994725;28;20052;-78
2022/03/20 01:31:44;;;;;;;20.02;16.40;;;6.00;66.80;;;5.46;53.31;101687.28;4996889;28;20054;-78
2022/03/20 01:34:11;;;;;;;18.98;15.32;;;6.00;67.00;;;5.49;52.66;101668.19;5013024;28;20642;-78
2022/03/20 01:36:38;;;;;;;21.88;17.80;;;5.90;66.70;;;5.50;53.01;101668.22;5029391;28;20054;-78
2022/03/20 01:39:06;;;;;;;19.65;15.57;;;7.80;68.00;;;5.48;52.39;101663.81;4983987;28;20399;-78
2022/03/20 01:41:33;;;;;;;20.65;16.27;;;7.70;67.20;;;5.54;52.24;101666.53;5020773;28;20053;-79
2022/03/20 01:44:02;;;;;;;19.40;15.13;;;5.90;66.30;;;5.46;52.00;101661.16;5019925;28;20081;-77
2022/03/20 01:46:32;;;;;;;24.20;16.48;;;6.30;66.20;;;5.44;52.09;101655.03;5000457;28;20054;-78
2022/03/20 01:48:59;;;;;;;23.10;16.10;;;5.90;65.90;;;5.38;51.82;101661.03;5026482;28;20054;-78
2022/03/20 01:54:13;;;;;;;19.00;15.40;;;5.90;66.40;;;5.35;51.54;101647.06;5019292;28;20046;-79
2022/03/20 01:56:46;;;;;;;23.52;16.15;;;7.10;66.30;;;5.38;51.63;101640.16;5018290;28;20046;-78
2022/03/20 01:59:16;;;;;;;20.30;16.10;;;5.80;65.60;;;5.32;51.88;101647.88;5019326;28;20049;-80
2022/03/20 02:01:44;;;;;;;19.88;15.50;;;6.00;65.80;;;5.31;51.65;101645.25;5016864;28;20044;-77
2022/03/20 02:04:15;;;;;;;22.33;14.95;;;5.80;65.70;;;5.32;52.11;101637.44;5013203;28;20056;-78
2022/03/20 02:06:43;;;;;;;22.27;16.65;;;5.80;65.70;;;5.27;52.09;101636.47;5014820;28;20034;-78
2022/03/20 02:09:11;;;;;;;22.63;17.52;;;5.80;65.70;;;5.23;52.01;101630.31;5010279;28;20042;-77
2022/03/20 02:11:40;;;;;;;20.77;15.18;;;5.90;65.70;;;5.23;51.98;101625.09;5010966;28;20046;-77
2022/03/20 02:14:09;;;;;;;21.88;15.93;;;5.80;65.60;;;5.22;51.24;101618.13;5010803;28;20042;-78
2022/03/20 02:16:38;;;;;;;19.90;14.50;;;5.70;65.30;;;5.16;51.64;101604.09;5010147;28;20052;-77
2022/03/20 02:19:13;;;;;;;21.52;15.75;;;5.70;65.30;;;5.22;51.37;101604.19;5010867;28;20458;-78
2022/03/20 02:21:45;;;;;;;21.27;15.52;;;6.10;65.40;;;5.16;51.59;101597.16;5011274;28;20050;-78
2022/03/20 02:24:44;;;;;;;19.75;16.05;;;5.70;65.00;;;5.24;51.36;101589.47;5009702;28;20116;-77
2022/03/20 02:27:17;;;;;;;27.50;17.42;;;5.60;65.00;;;5.20;51.25;101585.03;4995460;28;20057;-77
2022/03/20 02:29:54;;;;;;;26.20;17.33;;;5.70;64.90;;;5.16;50.90;101580.59;4994640;28;20049;-77
2022/03/20 02:32:28;;;;;;;21.75;16.80;;;5.60;64.60;;;5.15;50.99;101577.13;5012398;28;20499;-78
2022/03/20 02:35:04;;;;;;;20.83;14.55;;;6.00;64.90;;;5.13;50.95;101581.41;5018169;28;20092;-78
2022/03/20 02:37:34;;;;;;;24.75;17.20;;;5.60;64.70;;;5.07;51.05;101584.81;4999315;28;20153;-77
2022/03/20 02:40:03;;;;;;;20.15;15.60;;;6.30;65.00;;;5.13;50.72;101585.78;4998540;28;20173;-77
2022/03/20 02:42:30;;;;;;;24.20;17.23;;;5.60;64.30;;;5.16;50.62;101588.44;4995692;28;20618;-77
2022/03/20 02:45:10;;;;;;;21.40;15.60;;;5.60;64.20;;;5.11;50.63;101591.84;5011488;28;20073;-77
2022/03/20 02:47:44;;;;;;;25.00;16.98;;;5.60;64.10;;;5.10;50.80;101610.97;5018694;28;20053;-79
2022/03/20 02:50:32;;;;;;;20.17;16.02;;;5.60;64.50;;;5.13;50.41;101599.69;4993315;28;20034;-77
2022/03/20 02:53:03;;;;;;;19.73;15.52;;;5.60;64.00;;;5.06;50.22;101590.84;4992100;28;20049;-78
2022/03/20 02:55:36;;;;;;;21.63;16.58;;;5.60;63.80;;;5.03;50.56;101589.94;4991715;28;20082;-77
2022/03/20 02:58:07;;;;;;;21.48;15.65;;;6.10;64.20;;;5.04;50.52;101592.56;4992297;28;20536;-77
2022/03/20 03:00:36;;;;;;;22.67;15.77;;;7.80;65.20;;;5.04;50.08;101589.09;4998942;28;20054;-78
2022/03/20 03:03:08;;;;;;;22.77;16.63;;;7.00;64.60;;;5.05;50.14;101589.09;4998991;28;20393;-77
2022/03/20 03:05:35;;;;;;;21.55;16.55;;;7.00;64.50;;;5.07;50.57;101607.41;4982773;28;20077;-78
2022/03/20 03:10:55;;;;;;;23.17;16.00;;;5.50;63.70;;;5.05;50.42;101602.16;5017638;28;20046;-77
2022/03/20 03:13:30;;;;;;;20.98;15.57;;;5.50;63.50;;;5.09;49.87;101622.25;5000254;28;20095;-77
2022/03/20 03:16:03;;;;;;;22.88;16.88;;;5.60;63.50;;;5.01;49.74;101615.13;5016533;28;20038;-77
2022/03/20 03:18:30;;;;;;;20.55;14.80;;;5.50;63.20;;;5.02;50.55;101609.06;4999501;28;20181;-78
2022/03/20 03:20:59;;;;;;;22.67;17.00;;;5.50;63.40;;;5.05;50.22;101609.97;4989370;28;20046;-77
2022/03/20 03:23:27;;;;;;;21.83;16.40;;;5.50;63.40;;;5.06;50.02;101606.50;4977252;28;20053;-78
2022/03/20 03:25:55;;;;;;;23.60;16.88;;;5.50;63.50;;;5.07;50.23;101604.78;4991789;28;20038;-78
2022/03/20 03:28:34;;;;;;;23.10;16.88;;;5.50;63.20;;;5.03;50.78;101600.38;4976340;28;20051;-79
2022/03/20 03:31:08;;;;;;;22.38;17.20;;;7.60;65.20;;;5.02;50.86;101606.44;4989488;28;20064;-78
2022/03/20 03:36:26;;;;;;;22.25;16.60;;;5.50;63.80;;;5.05;49.84;101598.69;5009328;28;20061;-80
2022/03/20 03:38:53;;;;;;;21.55;16.77;;;5.50;63.60;;;5.06;50.41;101613.47;4994808;28;20050;-79
2022/03/20 03:41:20;;;;;;;20.35;15.82;;;5.50;63.60;;;5.05;50.58;101614.34;4991421;28;20081;-78
2022/03/20 03:43:47;;;;;;;20.92;15.98;;;5.50;63.60;;;5.07;50.90;101602.19;5013855;28;20582;-79
2022/03/20 03:46:15;;;;;;;24.33;17.85;;;5.60;63.90;;;5.09;50.40;101595.25;5019698;28;20041;-77
2022/03/20 03:48:43;;;;;;;25.42;15.65;;;6.80;64.70;;;5.13;50.42;101607.50;5020526;28;20130;-81
2022/03/20 03:51:10;;;;;;;21.83;16.55;;;5.60;63.90;;;5.15;50.63;101589.28;5022877;28;20226;-80
2022/03/20 03:53:37;;;;;;;21.65;16.05;;;5.60;64.00;;;5.22;50.51;101594.63;5018837;28;20060;-77
2022/03/20 03:56:04;;;;;;;24.17;16.45;;;5.60;63.90;;;5.21;50.39;101598.09;5015297;28;20145;-79
2022/03/20 03:58:32;;;;;;;22.60;17.10;;;5.60;63.80;;;5.26;49.79;101592.97;5016434;28;20056;-79
2022/03/20 04:01:00;;;;;;;28.52;17.60;;;5.70;63.60;;;5.24;50.49;101589.47;5011389;28;20742;-80
2022/03/20 04:03:28;;;;;;;21.90;16.50;;;5.70;63.70;;;5.25;50.39;101591.22;5000026;28;20042;-78
2022/03/20 04:06:04;;;;;;;23.73;17.90;;;5.70;63.80;;;5.25;50.11;101588.59;5013017;28;20140;-79
2022/03/20 04:08:32;;;;;;;24.42;17.85;;;5.70;63.50;;;5.22;50.12;101585.91;5014082;28;20053;-79
2022/03/20 04:11:00;;;;;;;20.40;15.63;;;5.70;63.50;;;5.18;50.18;101584.13;5012212;28;20128;-80
2022/03/20 04:13:29;;;;;;;23.50;17.23;;;6.60;64.40;;;5.15;50.85;101581.47;5004297;28;20116;-80
2022/03/20 04:15:56;;;;;;;22.20;17.58;;;5.70;63.90;;;5.02;51.30;101580.38;5007132;28;20054;-79
2022/03/20 04:18:23;;;;;;;25.05;18.17;;;6.80;64.90;;;5.11;51.56;101577.91;5022880;28;20056;-79
2022/03/20 04:20:52;;;;;;;22.48;17.05;;;5.60;64.10;;;5.14;50.67;101579.69;5016995;28;20072;-78
2022/03/20 04:26:04;;;;;;;22.98;16.48;;;5.60;64.00;;;4.97;51.59;101562.88;5013806;28;20498;-78
2022/03/20 04:28:32;;;;;;;22.95;16.63;;;5.60;64.20;;;4.99;50.93;101569.84;5030657;28;20396;-78
2022/03/20 04:30:59;;;;;;;24.38;16.92;;;6.80;64.50;;;4.91;51.34;101567.09;5021966;28;20565;-79
2022/03/20 04:33:27;;;;;;;23.48;16.85;;;5.50;64.20;;;4.98;51.19;101566.38;5000680;28;20049;-79
2022/03/20 04:35:54;;;;;;;23.13;17.50;;;7.10;65.10;;;4.93;51.55;101568.03;5013260;28;20562;-79
2022/03/20 04:38:21;;;;;;;25.42;17.00;;;6.80;65.70;;;4.90;52.11;101574.06;5011927;28;20537;-79
2022/03/20 04:40:49;;;;;;;24.50;17.65;;;6.50;65.60;;;4.94;52.06;101572.41;5011091;28;20045;-78
2022/03/20 04:43:17;;;;;;;22.65;17.33;;;5.40;65.30;;;4.94;51.87;101577.63;5010968;28;20518;-79
2022/03/20 04:45:44;;;;;;;25.30;17.20;;;5.50;65.30;;;4.91;52.32;101593.19;4986220;28;20113;-80
2022/03/20 04:59:15;;;;;;;25.33;18.85;;;5.40;65.80;;;4.95;53.10;101571.53;5017080;28;20053;-80
2022/03/20 05:01:42;;;;;;;25.27;17.52;;;7.10;66.90;;;5.01;53.06;101576.88;5020194;28;20557;-79
2022/03/20 05:04:09;;;;;;;25.08;17.95;;;5.40;66.70;;;5.02;53.51;101582.97;5017508;28;20117;-78
2022/03/20 05:06:36;;;;;;;26.88;18.50;;;5.40;66.60;;;5.09;53.20;101587.44;5011335;28;20060;-78
2022/03/20 05:14:34;;;;;;;26.25;19.80;;;5.60;66.60;;;5.11;53.32;101601.38;5011949;28;20049;-79
2022/03/20 05:17:07;;;;;;;26.60;19.23;;;5.60;66.90;;;5.12;53.39;101597.91;5008744;28;20084;-78
2022/03/20 05:19:36;;;;;;;30.25;19.65;;;5.50;66.60;;;5.17;53.46;101598.00;5011465;28;20046;-79
2022/03/20 05:22:10;;;;;;;31.88;19.90;;;5.60;67.00;;;5.22;52.94;101609.41;4994997;28;20056;-79
2022/03/20 05:24:39;;;;;;;25.67;18.25;;;5.60;66.60;;;5.20;53.78;101611.09;4995320;28;20467;-80
2022/03/20 05:27:07;;;;;;;23.95;18.20;;;6.80;68.10;;;5.24;54.14;101612.94;5015938;28;20062;-79
2022/03/20 05:29:35;;;;;;;24.38;18.45;;;5.70;67.60;;;5.25;53.69;101612.97;4996342;28;20056;-79
2022/03/20 05:32:03;;;;;;;22.40;17.73;;;5.60;67.70;;;5.29;53.92;101618.22;5013381;28;20510;-79
2022/03/20 05:34:33;;;;;;;29.13;20.70;;;5.70;67.20;;;5.30;53.57;101610.44;5012066;28;20052;-79
2022/03/20 05:37:01;;;;;;;27.00;20.50;;;5.70;67.00;;;5.32;53.89;101615.69;4998388;28;20173;-78
2022/03/20 05:39:28;;;;;;;29.17;19.73;;;5.70;67.40;;;5.38;53.65;101626.22;5022668;28;20098;-78
2022/03/20 05:41:55;;;;;;;23.58;17.52;;;5.70;67.40;;;5.41;53.75;101621.06;4998646;28;20412;-79
2022/03/20 05:44:25;;;;;;;24.65;18.08;;;5.80;67.50;;;5.43;54.51;101624.56;4997073;28;20048;-80
2022/03/20 05:46:54;;;;;;;;;;;5.80;68.10;;;5.51;54.00;101616.88;5038155;28;20054;-80
2022/03/20 05:49:24;;;;;;;25.80;18.88;;;5.80;67.80;;;5.54;54.66;101616.91;5037332;28;20314;-79
2022/03/20 05:51:54;;;;;;;22.98;18.48;;;5.80;68.40;;;5.51;55.27;101614.25;5020198;28;20351;-79
2022/03/20 05:54:22;;;;;;;28.10;18.92;;;8.00;69.60;;;5.53;54.93;101612.56;4996880;28;20073;-78
2022/03/20 05:59:39;;;;;;;25.25;18.17;;;6.00;68.50;;;5.61;54.08;101603.13;5021418;28;20046;-79
2022/03/20 06:02:08;;;;;;;;;;;5.90;68.30;;;5.66;54.53;101601.47;5026841;28;20060;-79
2022/03/20 06:04:39;;;;;;;25.80;18.80;;;5.90;68.60;;;5.70;55.00;101606.72;5024001;28;19922;-79
2022/03/20 06:07:08;;;;;;;26.38;17.92;;;6.10;69.00;;;5.73;54.89;101612.03;5016647;28;20180;-78
2022/03/20 06:09:37;;;;;;;24.60;19.23;;;6.10;69.10;;;5.77;55.63;101612.06;4998430;28;20100;-78
2022/03/20 06:12:08;;;;;;;26.55;19.77;;;6.90;69.80;;;5.78;55.19;101606.03;5014104;28;20046;-78
2022/03/20 06:14:36;;;;;;;27.55;19.52;;;6.20;69.10;;;5.83;54.74;101603.47;4990910;28;20034;-78
2022/03/20 06:17:05;;;;;;;28.83;20.50;;;7.70;70.10;;;5.84;54.91;101605.22;5008527;28;20042;-79
2022/03/20 06:19:35;;;;;;;27.90;20.05;;;6.20;69.20;;;5.89;54.70;101611.41;5011685;28;20050;-80
2022/03/20 06:22:11;;;;;;;25.65;19.48;;;7.30;69.60;;;5.88;55.25;101613.97;5026305;28;20058;-79
2022/03/20 06:24:38;;;;;;;25.83;19.17;;;6.30;69.40;;;5.90;55.62;101626.22;5003453;28;20046;-78
2022/03/20 06:27:05;;;;;;;28.48;20.10;;;6.30;69.80;;;6.01;55.12;101630.72;5016110;28;20038;-79
2022/03/20 06:29:35;;;;;;;25.00;19.48;;;6.30;69.60;;;6.03;55.56;101639.50;5021696;28;20427;-79
2022/03/20 06:32:02;;;;;;;26.00;19.55;;;6.40;70.00;;;6.06;55.22;101644.78;5016824;28;20054;-79
2022/03/20 06:34:29;;;;;;;26.05;19.63;;;6.40;69.50;;;6.08;55.85;101650.91;5017932;28;20049;-78
2022/03/20 06:36:58;;;;;;;34.28;21.42;;;6.50;69.80;;;6.16;55.11;101653.63;5017571;28;20046;-79
2022/03/20 06:39:25;;;;;;;27.05;19.95;;;6.50;69.80;;;6.17;55.63;101652.78;5021596;28;20084;-79
2022/03/20 06:41:52;;;;;;;26.42;19.05;;;6.50;70.00;;;6.22;55.53;101651.09;5024959;28;20129;-79
2022/03/20 06:44:19;;;;;;;25.38;19.98;;;6.60;70.20;;;6.28;55.79;101650.31;5037040;28;20052;-78
2022/03/20 06:46:46;;;;;;;26.85;19.35;;;6.60;70.10;;;6.31;55.61;101655.59;5031852;28;20034;-79
2022/03/20 06:49:13;;;;;;;27.80;19.40;;;6.60;70.10;;;6.34;55.67;101655.66;5024751;28;20835;-79
2022/03/20 06:51:40;;;;;;;26.35;21.42;;;6.70;70.10;;;6.38;55.62;101658.31;5016673;28;20430;-78
2022/03/20 06:54:10;;;;;;;28.27;19.85;;;6.70;70.30;;;6.45;55.74;101661.88;5018116;28;20712;-78
2022/03/20 06:56:40;;;;;;;27.27;19.30;;;6.80;70.20;;;6.46;55.62;101665.41;4998529;28;20076;-79
2022/03/20 06:59:07;;;;;;;26.98;20.45;;;7.10;70.60;;;6.50;55.47;101665.47;5015434;28;20406;-79
2022/03/20 07:01:34;;;;;;;27.70;19.50;;;6.80;70.30;;;6.58;55.47;101676.03;5019193;28;20034;-79
2022/03/20 07:04:01;;;;;;;25.92;19.70;;;7.00;70.60;;;6.59;56.32;101669.94;5025565;28;20076;-77
2022/03/20 07:06:29;;;;;;;27.52;21.63;;;6.90;70.90;;;6.70;56.44;101670.06;5024038;28;20057;-77
2022/03/20 07:08:59;;;;;;;25.77;20.45;;;7.00;71.20;;;6.78;55.86;101673.66;5019158;28;20119;-77
2022/03/20 07:11:32;;;;;;;29.33;22.85;;;7.30;71.00;;;6.86;55.49;101668.50;5036987;28;20046;-78
2022/03/20 07:14:04;;;;;;;27.90;21.20;;;7.10;70.80;;;7.02;54.92;101672.22;5017377;28;20060;-77
2022/03/20 07:16:33;;;;;;;26.85;20.42;;;7.30;70.60;;;7.12;54.90;101680.19;4993780;28;20057;-78
2022/03/20 07:19:01;;;;;;;25.75;20.08;;;7.30;70.70;;;7.17;54.83;101683.72;5011692;28;20074;-77
2022/03/20 07:21:32;;;;;;;29.95;21.60;;;8.90;71.50;;;7.28;54.67;101682.09;5016222;28;20112;-77
2022/03/20 07:23:59;;;;;;;27.63;20.70;;;7.50;70.30;;;7.38;54.32;101683.94;5000735;28;20042;-77
2022/03/20 07:29:30;;;;;;;27.77;20.95;;;7.60;70.50;;;7.52;54.66;101675.34;5011341;28;20046;-77
2022/03/20 07:32:06;;;;;;;25.80;20.58;;;8.80;71.20;;;7.61;53.90;101685.91;5011306;28;20052;-78
2022/03/20 07:34:39;;;;;;;30.45;21.63;;;7.80;70.20;;;7.69;53.97;101677.25;5011183;28;20037;-78
2022/03/20 07:37:07;;;;;;;29.67;21.85;;;8.00;70.10;;;7.77;54.69;101683.44;5011180;28;20073;-77
2022/03/20 07:39:35;;;;;;;32.38;22.50;;;8.00;70.50;;;7.85;54.05;101678.25;5010990;28;20558;-78
2022/03/20 07:42:03;;;;;;;29.45;21.63;;;8.00;70.40;;;8.00;53.70;101682.75;4994216;28;20050;-78
2022/03/20 07:44:31;;;;;;;27.58;21.13;;;8.10;70.20;;;8.09;53.67;101681.06;5010329;28;20129;-78
2022/03/20 07:46:58;;;;;;;29.45;22.80;;;8.20;70.30;;;8.16;53.25;101689.84;5013116;28;20045;-78
2022/03/20 07:49:26;;;;;;;29.95;21.98;;;8.40;70.00;;;8.27;52.69;101686.44;5029840;28;20056;-80
2022/03/20 07:51:57;;;;;;;30.45;22.55;;;8.40;69.60;;;8.31;52.50;101689.09;4999945;28;20078;-80
2022/03/20 07:54:27;;;;;;;31.52;22.20;;;8.50;69.60;;;8.37;52.75;101697.00;5014416;28;20059;-80
2022/03/20 07:56:55;;;;;;;28.98;22.73;;;10.10;70.40;;;8.47;52.32;101700.53;4999100;28;20503;-79
2022/03/20 07:59:24;;;;;;;29.88;22.52;;;10.20;70.30;;;8.56;52.21;101702.38;5014507;28;20408;-80
2022/03/20 08:01:54;;;;;;;30.48;21.70;;;8.70;69.00;;;8.61;52.18;101702.41;5019519;28;20054;-80
2022/03/20 08:04:24;;;;;;;29.80;23.10;;;10.30;69.90;;;8.61;51.99;101708.56;5001102;28;20144;-80
2022/03/20 08:06:52;;;;;;;29.00;23.13;;;8.80;68.90;;;8.65;52.00;101694.56;5014172;28;20064;-80
2022/03/20 08:09:19;;;;;;;26.00;22.10;;;10.10;69.40;;;8.76;52.53;101694.63;5014328;28;20049;-80
2022/03/20 08:11:46;;;;;;;30.30;22.23;;;10.10;69.90;;;8.87;51.75;101707.78;5002392;28;20069;-80
2022/03/20 08:14:13;;;;;;;29.50;20.95;;;9.00;69.00;;;8.94;52.32;101709.59;5019112;28;20174;-80
2022/03/20 08:16:41;;;;;;;28.02;20.92;;;9.10;69.20;;;9.00;51.95;101713.09;5016350;28;20152;-80
2022/03/20 08:19:09;;;;;;;28.23;21.45;;;9.30;69.30;;;9.11;51.76;101702.63;5016401;28;20042;-80
2022/03/20 08:21:38;;;;;;;27.13;21.83;;;9.30;69.30;;;9.16;51.10;101709.66;4997898;28;20401;-80
2022/03/20 08:24:08;;;;;;;27.10;22.15;;;11.10;69.50;;;9.26;51.20;101715.81;5013890;28;20112;-80
2022/03/20 08:26:36;;;;;;;26.35;21.33;;;9.40;68.40;;;9.34;51.19;101716.72;5024721;28;20065;-80
2022/03/20 08:29:03;;;;;;;30.85;23.90;;;9.40;68.40;;;9.32;51.68;101718.47;5024023;28;20114;-81
2022/03/20 08:31:31;;;;;;;35.10;27.55;;;9.50;68.70;;;9.40;51.78;101715.88;5038277;28;20081;-80
2022/03/20 08:33:58;;;;;;;34.47;26.38;;;11.20;69.70;;;9.47;51.36;101703.63;5015148;28;20069;-81
2022/03/20 08:36:28;;;;;;;31.73;23.40;;;10.10;68.90;;;9.53;51.97;101708.88;5013745;28;20477;-78
2022/03/20 08:38:56;;;;;;;39.80;24.13;;;10.80;69.80;;;9.57;51.25;101699.25;5015943;28;20144;-79
2022/03/20 08:41:23;;;;;;;32.85;24.52;;;9.70;68.40;;;9.65;51.33;101711.53;5010933;28;20511;-81
2022/03/20 08:43:50;;;;;;;33.70;26.10;;;9.80;68.50;;;9.67;51.59;101713.28;5022331;28;20034;-81
2022/03/20 08:46:17;;;;;;;32.45;24.77;;;9.80;69.00;;;9.68;51.54;101704.53;5008837;28;20066;-80
2022/03/20 08:48:44;;;;;;;29.52;23.42;;;9.90;69.10;;;9.72;51.29;101701.00;5008362;28;20053;-81
2022/03/20 08:51:11;;;;;;;30.30;23.52;;;11.10;69.30;;;9.79;50.63;101708.03;5007504;28;20042;-78
2022/03/20 08:53:39;;;;;;;31.05;22.67;;;9.90;67.70;;;9.78;50.85;101711.56;5010774;28;20034;-79
2022/03/20 08:56:06;;;;;;;30.95;23.27;;;10.00;67.70;;;9.85;50.33;101720.31;4991565;28;20042;-79
2022/03/20 08:58:33;;;;;;;33.25;25.00;;;10.10;67.20;;;9.90;50.51;101723.81;4993978;28;20042;-81
2022/03/20 09:01:00;;;;;;;29.85;23.73;;;10.50;67.70;;;9.96;50.19;101718.56;5003999;28;20060;-81
2022/03/20 09:03:29;;;;;;;29.80;24.60;;;10.10;67.40;;;9.96;50.65;101726.44;5015296;28;20583;-79
2022/03/20 09:05:57;;;;;;;28.35;23.60;;;10.10;67.50;;;9.99;50.14;101729.09;4991321;28;20116;-79
2022/03/20 09:08:24;;;;;;;31.42;25.08;;;10.20;67.10;;;9.97;50.34;101719.44;4991105;28;20043;-78
2022/03/20 09:10:51;;;;;;;31.83;24.52;;;10.20;67.00;;;9.98;50.22;101737.81;4982044;28;20739;-77
2022/03/20 09:13:18;;;;;;;33.00;25.52;;;10.20;66.90;;;10.05;50.23;101729.09;4977680;28;20547;-78
2022/03/20 09:18:58;;;;;;;32.40;26.38;;;11.30;67.60;;;10.07;50.20;101732.59;4973349;28;20500;-77
2022/03/20 09:21:19;;;;;;;33.63;27.85;;;10.30;67.00;;;10.18;50.00;101739.59;4990045;28;20049;-78
2022/03/20 09:23:48;;;;;;;31.20;24.67;;;11.00;67.50;;;10.25;50.19;101740.47;4999322;28;20049;-78
2022/03/20 09:26:15;;;;;;;29.98;23.88;;;10.40;67.00;;;10.32;49.72;101750.09;5009683;28;20045;-77
2022/03/20 09:28:45;;;;;;;29.25;23.67;;;11.60;67.30;;;10.47;49.56;101768.53;4994293;28;20060;-78
2022/03/20 09:31:31;;;;;;;27.63;23.15;;;10.50;66.50;;;10.60;49.40;101779.06;5025723;28;20080;-77
2022/03/20 09:34:00;;;;;;;31.83;24.65;;;11.70;67.00;;;10.68;49.02;101779.06;5010219;28;20889;-77
2022/03/20 09:36:29;;;;;;;30.00;22.95;;;10.90;66.20;;;10.78;48.69;101779.03;4994733;28;20149;-78
2022/03/20 09:38:56;;;;;;;27.02;22.38;;;10.90;65.80;;;10.89;48.53;101789.53;5010681;28;20053;-76
2022/03/20 09:41:32;;;;;;;31.77;24.70;;;10.90;65.30;;;10.91;48.38;101779.00;4994402;28;20056;-78
2022/03/20 09:44:05;;;;;;;28.83;23.98;;;11.00;65.30;;;10.99;48.20;101776.34;4995878;28;20399;-79
2022/03/20 09:46:34;;;;;;;28.88;23.33;;;11.10;64.90;;;11.16;48.21;101784.16;5008677;28;20149;-77
2022/03/20 09:49:08;;;;;;;29.45;23.88;;;11.10;65.10;;;11.28;47.40;101783.25;5016126;28;20062;-77
2022/03/20 09:51:38;;;;;;;29.70;23.40;;;11.30;64.30;;;11.41;47.70;101792.88;5015551;28;20522;-78
2022/03/20 09:54:05;;;;;;;33.97;24.70;;;11.40;64.90;;;11.51;46.55;101780.53;5012106;28;20053;-78
2022/03/20 09:56:33;;;;;;;27.75;23.38;;;12.50;64.30;;;11.71;46.77;101782.16;5014969;28;20046;-79
2022/03/20 09:59:00;;;;;;;29.52;23.25;;;12.70;64.30;;;11.81;46.33;101789.13;5012814;28;20042;-80
2022/03/20 10:01:27;;;;;;;30.20;24.23;;;11.90;63.10;;;11.85;45.76;101796.13;5030112;28;20045;-78
2022/03/20 10:04:16;;;;;;;26.17;22.77;;;11.90;62.50;;;11.95;46.47;101791.66;4995982;28;20391;-81
2022/03/20 10:06:43;;;;;;;31.83;24.60;;;12.00;62.70;;;11.98;46.31;101793.41;5002823;28;20069;-80
2022/03/20 10:09:16;;;;;;;27.83;24.48;;;12.10;62.60;;;11.92;45.99;101794.34;5018233;28;20042;-82
2022/03/20 10:11:53;;;;;;;31.40;23.55;;;12.40;62.40;;;11.97;46.04;101795.16;5004063;28;20053;-79
2022/03/20 10:14:22;;;;;;;30.08;23.75;;;12.10;62.10;;;11.91;46.07;101798.72;5013996;28;20062;-81
2022/03/20 10:17:17;;;;;;;350.23;133.25;;;12.10;61.90;;;11.82;46.32;101798.78;5027179;28;20052;-78
2022/03/20 10:19:44;;;;;;;68.13;48.13;;;12.00;61.90;;;11.74;46.40;101793.56;5016447;28;20145;-79
2022/03/20 10:22:17;;;;;;;35.17;28.98;;;12.00;62.20;;;11.80;47.11;101797.94;5017168;28;20042;-80
2022/03/20 10:24:51;;;;;;;29.00;23.85;;;12.00;63.00;;;11.85;47.67;101797.88;4991330;28;20080;-80
2022/03/20 10:27:19;;;;;;;29.17;24.25;;;11.80;63.50;;;11.88;47.48;101797.88;5000561;28;20038;-79
2022/03/20 10:29:53;;;;;;;30.02;23.58;;;12.00;63.70;;;11.94;47.51;101810.13;5009049;28;20056;-79
2022/03/20 10:32:22;;;;;;;28.95;23.58;;;12.00;64.00;;;11.98;47.60;101807.47;4992473;28;20061;-77
2022/03/20 10:34:59;;;;;;;30.15;25.58;;;12.10;63.70;;;12.08;47.07;101804.81;5004086;28;20042;-80
2022/03/20 10:37:51;;;;;;;28.98;24.25;;;12.10;63.40;;;12.04;47.04;101802.19;4976120;28;20141;-77
2022/03/20 10:40:27;;;;;;;30.67;23.77;;;12.20;63.10;;;12.11;47.77;101792.47;4992552;28;20073;-78
2022/03/20 10:43:16;;;;;;;29.38;24.98;;;12.20;63.60;;;12.20;47.46;101791.53;5020684;28;20042;-80
2022/03/20 10:46:00;;;;;;;32.30;24.98;;;12.30;63.70;;;12.19;48.00;101793.28;4998823;28;20137;-76
2022/03/20 10:48:45;;;;;;;28.90;25.27;;;12.30;64.00;;;12.23;47.85;101791.50;5008240;28;20408;-76
2022/03/20 10:51:12;;;;;;;31.75;26.88;;;12.40;63.50;;;12.36;47.47;101794.91;4992718;28;20054;-76
2022/03/20 10:54:01;;;;;;;27.58;22.98;;;13.90;64.40;;;12.40;47.13;101796.63;5008375;28;20121;-75
2022/03/20 10:56:28;;;;;;;29.33;24.42;;;12.50;63.30;;;12.48;47.25;101788.63;5008968;28;20034;-77